Time;durP1;ratioP1;P1;durP2;ratioP2;P2;SDS_P1;SDS_P2;PMS_P1;PMS_P2;Temp;Humidity;BMP_temperature;BMP_pressure;BME280_temperature;BME280_humidity;BME280_pressure;Samples;Min_cycle;Max_cycle;Signal;HPM_P1;HPM_P2
2021/12/24 00:01:11;;;;;;;3.33;1.50;;;7.00;99.90;;;;;;4980926;28;20502;-74
2021/12/24 00:03:37;;;;;;;2.87;1.47;;;7.00;99.90;;;;;;4990976;28;20887;-74
2021/12/24 00:06:04;;;;;;;4.07;1.90;;;7.10;99.90;;;;;;4993211;28;20427;-74
2021/12/24 00:08:31;;;;;;;3.27;1.47;;;7.20;99.90;;;;;;4989076;28;20438;-74
2021/12/24 00:11:01;;;;;;;4.83;1.47;;;7.20;99.90;;;;;;4989915;28;20443;-74
2021/12/24 00:13:38;;;;;;;5.00;2.03;;;7.30;99.90;;;;;;4989904;28;20427;-74
2021/12/24 00:16:11;;;;;;;3.37;1.80;;;7.20;99.90;;;;;;4987056;28;20489;-74
2021/12/24 00:35:28;;;;;;;6.80;1.93;;;7.00;99.90;;;;;;4989901;28;20478;-74
2021/12/24 00:37:54;;;;;;;4.63;1.47;;;6.80;99.90;;;;;;4989537;28;20442;-74
2021/12/24 00:40:20;;;;;;;3.30;1.30;;;6.70;99.90;;;;;;4994761;28;20950;-74
2021/12/24 00:42:52;;;;;;;4.07;1.90;;;6.60;99.90;;;;;;4992985;28;20217;-74
2021/12/24 00:45:22;;;;;;;5.30;2.03;;;6.60;99.90;;;;;;4990654;28;20526;-73
2021/12/24 00:47:48;;;;;;;13.00;1.67;;;6.50;99.90;;;;;;4992123;28;20474;-74
2021/12/24 00:50:18;;;;;;;3.40;1.73;;;6.50;99.90;;;;;;4984140;28;20906;-74
2021/12/24 00:52:49;;;;;;;6.03;2.03;;;6.40;99.90;;;;;;4981157;28;20494;-74
2021/12/24 00:55:17;;;;;;;3.60;1.70;;;6.50;99.90;;;;;;4986055;28;21143;-74
2021/12/24 00:57:49;;;;;;;5.00;2.30;;;6.40;99.90;;;;;;4980652;28;20841;-74
2021/12/24 01:00:24;;;;;;;2.73;1.70;;;6.50;99.90;;;;;;4951035;28;1160927;-74
2021/12/24 01:02:52;;;;;;;2.57;1.57;;;6.30;99.90;;;;;;4988714;28;20271;-74
2021/12/24 01:05:20;;;;;;;8.57;1.73;;;6.30;99.90;;;;;;4982286;28;20438;-74
2021/12/24 01:07:48;;;;;;;6.10;2.37;;;6.30;99.90;;;;;;4989690;28;20458;-74
2021/12/24 01:10:16;;;;;;;6.17;2.07;;;6.40;99.90;;;;;;4998016;28;20426;-74
2021/12/24 01:12:42;;;;;;;2.73;1.40;;;6.20;99.90;;;;;;4994688;28;20450;-74
2021/12/24 01:15:09;;;;;;;7.07;1.70;;;6.20;99.90;;;;;;4996088;28;20451;-73
2021/12/24 01:17:44;;;;;;;3.77;1.83;;;6.00;99.90;;;;;;4995707;28;20449;-74
2021/12/24 01:38:50;;;;;;;4.93;1.90;;;5.60;99.90;;;;;;4994096;28;20538;-74
2021/12/24 01:41:20;;;;;;;4.13;2.03;;;5.60;99.90;;;;;;4992614;28;20505;-74
2021/12/24 01:43:45;;;;;;;6.13;2.23;;;5.40;99.90;;;;;;4986662;28;20439;-74
2021/12/24 01:46:12;;;;;;;7.20;2.00;;;5.40;99.90;;;;;;4991110;28;20449;-74
2021/12/24 01:48:38;;;;;;;3.90;1.53;;;5.40;99.90;;;;;;4991990;28;20191;-74
2021/12/24 01:51:04;;;;;;;4.03;1.67;;;5.40;99.90;;;;;;5003630;28;20457;-73
2021/12/24 01:53:34;;;;;;;4.40;2.10;;;5.30;99.90;;;;;;4996138;28;20525;-74
2021/12/24 01:55:59;;;;;;;3.60;1.50;;;5.50;99.90;;;;;;4984045;28;20469;-74
2021/12/24 01:58:26;;;;;;;2.00;1.10;;;5.70;99.90;;;;;;4990947;28;20746;-74
2021/12/24 02:00:55;;;;;;;2.63;1.23;;;5.90;99.90;;;;;;4984249;28;20281;-74
2021/12/24 02:03:22;;;;;;;2.73;1.20;;;6.00;99.90;;;;;;4986250;28;21109;-74
2021/12/24 02:05:48;;;;;;;2.50;1.60;;;6.20;99.90;;;;;;4982851;28;20566;-74
2021/12/24 02:08:16;;;;;;;2.07;0.97;;;6.30;99.90;;;;;;4995188;28;20910;-73
2021/12/24 02:10:43;;;;;;;2.40;1.13;;;6.40;99.90;;;;;;4992606;28;20439;-74
2021/12/24 02:13:09;;;;;;;2.53;1.30;;;6.40;99.90;;;;;;4987795;28;20461;-74
2021/12/24 02:15:49;;;;;;;2.63;1.60;;;6.50;99.90;;;;;;4995085;28;20973;-74
2021/12/24 02:28:13;;;;;;;5.73;1.33;;;6.40;99.90;;;;;;4988958;28;20485;-73
2021/12/24 02:29:31;;;;;;;3.67;1.70;;;6.50;99.90;;;;;;4994974;28;20570;-74
2021/12/24 02:31:57;;;;;;;2.40;1.27;;;6.50;99.90;;;;;;4989137;28;20477;-73
2021/12/24 02:34:22;;;;;;;3.30;1.07;;;6.50;99.90;;;;;;4987205;28;20207;-73
2021/12/24 02:36:48;;;;;;;2.60;1.20;;;6.50;99.90;;;;;;4987372;28;20648;-73
2021/12/24 02:39:14;;;;;;;2.77;1.57;;;6.60;99.90;;;;;;4989484;28;20826;-74
2021/12/24 02:41:39;;;;;;;5.57;1.67;;;6.60;99.90;;;;;;4989083;28;20251;-74
2021/12/24 02:44:05;;;;;;;4.47;1.70;;;6.60;99.90;;;;;;4985965;28;20250;-74
2021/12/24 02:46:42;;;;;;;6.00;1.47;;;6.60;99.90;;;;;;4991828;28;20187;-73
2021/12/24 02:53:54;;;;;;;2.73;1.40;;;6.50;99.90;;;;;;4989788;28;20183;-74
2021/12/24 02:54:37;;;;;;;4.70;1.80;;;6.40;99.90;;;;;;4986583;28;20427;-74
2021/12/24 02:57:09;;;;;;;2.77;1.67;;;6.40;99.90;;;;;;4995964;28;20418;-73
2021/12/24 02:59:44;;;;;;;2.60;1.27;;;6.40;99.90;;;;;;4992078;28;20204;-73
2021/12/24 03:02:10;;;;;;;2.37;1.10;;;6.40;99.90;;;;;;4990155;28;20470;-74
2021/12/24 03:04:35;;;;;;;6.47;2.30;;;6.40;99.90;;;;;;4985276;28;20966;-73
2021/12/24 03:07:01;;;;;;;3.93;1.47;;;6.40;99.90;;;;;;4989264;28;20218;-73
2021/12/24 03:09:26;;;;;;;3.00;1.27;;;6.40;99.90;;;;;;4996088;28;20199;-73
2021/12/24 03:11:53;;;;;;;2.43;1.30;;;6.40;99.90;;;;;;4991527;28;20577;-73
2021/12/24 03:14:19;;;;;;;2.93;1.53;;;6.30;99.90;;;;;;4988957;28;20283;-73
2021/12/24 03:16:52;;;;;;;2.43;1.37;;;6.30;99.90;;;;;;4985118;28;20903;-74
2021/12/24 03:19:19;;;;;;;2.77;1.50;;;6.30;99.90;;;;;;4979528;28;20465;-74
2021/12/24 03:21:57;;;;;;;4.00;1.60;;;6.20;99.90;;;;;;4983630;28;21009;-73
2021/12/24 03:26:48;;;;;;;2.37;1.40;;;6.30;99.90;;;;;;4991768;28;20784;-73
2021/12/24 03:29:17;;;;;;;6.60;1.33;;;6.30;99.90;;;;;;4995138;28;20198;-73
2021/12/24 03:31:43;;;;;;;3.50;1.30;;;6.40;99.90;;;;;;4987424;28;20242;-73
2021/12/24 03:34:12;;;;;;;2.90;1.53;;;6.40;99.90;;;;;;4988911;28;21451;-74
2021/12/24 03:36:38;;;;;;;2.27;1.23;;;6.50;99.90;;;;;;4993255;28;20855;-74
2021/12/24 03:39:06;;;;;;;1.97;1.13;;;6.50;99.90;;;;;;4994727;28;20448;-73
2021/12/24 03:41:32;;;;;;;2.17;1.23;;;6.60;99.90;;;;;;4988273;28;20474;-74
2021/12/24 03:43:58;;;;;;;2.70;1.27;;;6.60;99.90;;;;;;4997072;28;20437;-74
2021/12/24 03:46:33;;;;;;;2.50;1.40;;;6.60;99.90;;;;;;4982169;28;20448;-73
2021/12/24 03:49:04;;;;;;;4.33;1.33;;;6.50;99.90;;;;;;4989082;28;20797;-74
2021/12/24 03:56:46;;;;;;;6.07;1.50;;;6.30;99.90;;;;;;4987342;28;20581;-73
2021/12/24 03:59:13;;;;;;;3.73;1.70;;;6.40;99.90;;;;;;4986981;28;20880;-73
2021/12/24 04:01:39;;;;;;;5.53;1.27;;;6.30;99.90;;;;;;4997153;28;20765;-73
2021/12/24 04:04:05;;;;;;;3.10;1.43;;;6.30;99.90;;;;;;4990767;28;20517;-73
2021/12/24 04:06:32;;;;;;;2.03;1.03;;;6.30;99.90;;;;;;4988723;28;20470;-73
2021/12/24 04:08:58;;;;;;;2.60;1.37;;;6.30;99.90;;;;;;4986111;28;21268;-74
2021/12/24 04:11:23;;;;;;;1.97;1.10;;;6.30;99.90;;;;;;4990211;28;20454;-73
2021/12/24 04:13:49;;;;;;;3.20;1.67;;;6.30;99.90;;;;;;4988554;28;20188;-73
2021/12/24 04:16:15;;;;;;;1.97;1.17;;;6.40;99.90;;;;;;4989947;28;20199;-73
2021/12/24 04:26:53;;;;;;;2.10;1.10;;;6.30;99.90;;;;;;4990198;28;20476;-73
2021/12/24 04:29:19;;;;;;;5.10;1.63;;;6.30;99.90;;;;;;4996182;28;20435;-73
2021/12/24 04:31:53;;;;;;;2.40;0.93;;;6.20;99.90;;;;;;4992398;28;20191;-74
2021/12/24 04:34:25;;;;;;;4.90;1.40;;;6.30;99.90;;;;;;4992224;28;20230;-74
2021/12/24 05:03:43;;;;;;;3.87;1.47;;;6.30;99.90;;;;;;4995383;28;20416;-73
2021/12/24 05:08:56;;;;;;;2.63;0.90;;;6.50;99.90;;;;;;4980122;28;20551;-74
2021/12/24 05:11:23;;;;;;;3.37;1.20;;;6.50;99.90;;;;;;4981197;28;20547;-73
2021/12/24 05:13:51;;;;;;;2.50;1.30;;;6.60;99.90;;;;;;4987774;28;20450;-74
2021/12/24 05:21:42;;;;;;;3.20;1.37;;;6.80;99.90;;;;;;4991040;28;20473;-73
2021/12/24 05:24:14;;;;;;;2.73;1.07;;;6.80;99.90;;;;;;4983040;28;20449;-73
2021/12/24 05:26:43;;;;;;;3.83;1.30;;;6.70;99.90;;;;;;4983179;28;20426;-74
2021/12/24 05:29:08;;;;;;;3.30;1.57;;;6.90;99.90;;;;;;4984500;28;20549;-73
2021/12/24 05:31:35;;;;;;;5.73;1.53;;;7.00;99.90;;;;;;4990397;28;20669;-73
2021/12/24 05:34:01;;;;;;;3.93;1.50;;;7.00;99.90;;;;;;4991291;28;20199;-74
2021/12/24 05:36:27;;;;;;;4.90;1.87;;;6.90;99.90;;;;;;4990134;28;21081;-73
2021/12/24 05:38:53;;;;;;;3.23;1.57;;;6.90;99.90;;;;;;4982978;28;21049;-73
2021/12/24 05:41:21;;;;;;;2.90;1.37;;;6.90;99.90;;;;;;4986834;28;20462;-74
2021/12/24 05:43:47;;;;;;;2.80;1.33;;;6.90;99.90;;;;;;4991266;28;20275;-74
2021/12/24 05:46:13;;;;;;;9.80;1.90;;;6.90;99.90;;;;;;4972348;28;20423;-73
2021/12/24 05:48:39;;;;;;;2.87;1.43;;;6.90;99.90;;;;;;4991196;28;20935;-73
2021/12/24 05:51:04;;;;;;;2.37;1.57;;;6.90;99.90;;;;;;4983285;28;20200;-73
2021/12/24 05:53:30;;;;;;;2.67;1.60;;;6.80;99.90;;;;;;4982651;28;20207;-73
2021/12/24 05:55:56;;;;;;;2.90;1.37;;;6.80;99.90;;;;;;4992210;28;20196;-73
2021/12/24 05:58:22;;;;;;;5.20;1.60;;;6.90;99.90;;;;;;4995398;28;20188;-73
2021/12/24 06:00:48;;;;;;;5.43;1.90;;;6.80;99.90;;;;;;4990824;28;20227;-73
2021/12/24 06:03:15;;;;;;;3.63;1.40;;;6.70;99.90;;;;;;4982035;28;20834;-73
2021/12/24 06:05:41;;;;;;;6.97;1.80;;;6.70;99.90;;;;;;4990182;28;20183;-73
2021/12/24 06:08:07;;;;;;;3.23;1.30;;;6.80;99.90;;;;;;4985116;28;20883;-73
2021/12/24 06:10:34;;;;;;;2.73;1.10;;;6.80;99.90;;;;;;4989103;28;20439;-73
2021/12/24 06:13:01;;;;;;;2.33;1.10;;;6.80;99.90;;;;;;4983098;28;20191;-73
2021/12/24 06:15:27;;;;;;;2.30;1.50;;;6.70;99.90;;;;;;4991901;28;20430;-72
2021/12/24 06:17:56;;;;;;;7.70;2.17;;;6.80;99.90;;;;;;4995391;28;20845;-73
2021/12/24 06:20:23;;;;;;;2.10;1.20;;;6.70;99.90;;;;;;4987114;28;20528;-73
2021/12/24 06:22:49;;;;;;;2.73;1.67;;;6.60;99.90;;;;;;4991087;28;20477;-73
2021/12/24 06:25:17;;;;;;;2.10;1.33;;;6.60;99.90;;;;;;4991426;28;20439;-73
2021/12/24 06:27:43;;;;;;;2.33;1.10;;;6.60;99.90;;;;;;4991150;28;20194;-73
2021/12/24 06:30:11;;;;;;;2.70;0.90;;;6.50;99.90;;;;;;5001145;28;21049;-73
2021/12/24 06:32:37;;;;;;;5.63;1.30;;;6.40;99.90;;;;;;4993425;28;20443;-73
2021/12/24 06:35:05;;;;;;;2.20;1.30;;;6.40;99.90;;;;;;4993442;28;20414;-73
2021/12/24 06:37:31;;;;;;;4.70;1.60;;;6.30;99.90;;;;;;4994825;28;20430;-73
2021/12/24 06:39:56;;;;;;;5.40;2.10;;;6.30;99.90;;;;;;4995643;28;20429;-73
2021/12/24 06:42:22;;;;;;;5.10;1.70;;;6.30;99.90;;;;;;4998375;28;20577;-73
2021/12/24 06:44:48;;;;;;;4.70;2.30;;;6.30;99.90;;;;;;4993889;28;20179;-73
2021/12/24 06:47:14;;;;;;;3.20;1.47;;;6.40;99.90;;;;;;4998287;28;20471;-72
2021/12/24 06:49:40;;;;;;;3.00;1.53;;;6.40;99.90;;;;;;4992536;28;20207;-73
2021/12/24 06:52:05;;;;;;;2.90;1.50;;;6.50;99.90;;;;;;4994028;28;20187;-72
2021/12/24 06:54:33;;;;;;;5.83;1.90;;;6.40;99.90;;;;;;4995434;28;20467;-72
2021/12/24 06:57:00;;;;;;;13.87;1.77;;;6.50;99.90;;;;;;4997404;28;20272;-73
2021/12/24 06:59:26;;;;;;;2.70;1.47;;;6.30;99.90;;;;;;4989549;28;20444;-73
2021/12/24 07:01:52;;;;;;;2.97;1.60;;;6.40;99.90;;;;;;4996379;28;20472;-73
2021/12/24 07:04:17;;;;;;;4.20;1.93;;;6.40;99.90;;;;;;4992935;28;20184;-73
2021/12/24 07:06:45;;;;;;;5.07;1.53;;;6.40;99.90;;;;;;4994166;28;20446;-73
2021/12/24 07:09:12;;;;;;;3.50;1.60;;;6.50;99.90;;;;;;4996962;28;20315;-72
2021/12/24 07:11:39;;;;;;;4.30;1.80;;;6.50;99.90;;;;;;4996529;28;20470;-73
2021/12/24 07:14:05;;;;;;;3.27;2.00;;;6.50;99.90;;;;;;4995778;28;20435;-72
2021/12/24 07:16:30;;;;;;;3.80;1.47;;;6.50;99.90;;;;;;4991020;28;20477;-72
2021/12/24 07:18:56;;;;;;;3.17;1.50;;;6.30;99.90;;;;;;4992029;28;20209;-73
2021/12/24 07:21:22;;;;;;;3.47;1.67;;;6.30;99.90;;;;;;4992824;28;20211;-72
2021/12/24 07:23:47;;;;;;;4.90;1.63;;;6.40;99.90;;;;;;4990932;28;20617;-73
2021/12/24 07:26:13;;;;;;;4.13;1.70;;;6.40;99.90;;;;;;4992878;28;20187;-73
2021/12/24 07:28:39;;;;;;;3.53;1.30;;;6.30;99.90;;;;;;4987392;28;20274;-73
2021/12/24 07:31:04;;;;;;;9.50;2.10;;;6.40;99.90;;;;;;4989788;28;20195;-73
2021/12/24 07:33:30;;;;;;;4.07;2.00;;;6.40;99.90;;;;;;4988805;28;20192;-73
2021/12/24 07:35:56;;;;;;;3.10;2.17;;;6.30;99.90;;;;;;4988564;28;20211;-73
2021/12/24 07:38:22;;;;;;;3.13;1.80;;;6.30;99.90;;;;;;4991447;28;20246;-73
2021/12/24 07:40:47;;;;;;;6.80;2.00;;;6.30;99.90;;;;;;4991025;28;20215;-73
2021/12/24 07:43:13;;;;;;;6.90;1.50;;;6.30;99.90;;;;;;4986006;28;20275;-74
2021/12/24 07:45:40;;;;;;;7.53;1.97;;;6.30;99.90;;;;;;4994461;28;20184;-74
2021/12/24 07:48:11;;;;;;;3.07;1.50;;;6.30;99.90;;;;;;4989514;28;20213;-74
2021/12/24 07:53:09;;;;;;;5.70;2.20;;;6.20;99.90;;;;;;4987892;28;20517;-74
2021/12/24 07:55:36;;;;;;;8.77;2.43;;;6.20;99.90;;;;;;4988464;28;21110;-74
2021/12/24 07:58:03;;;;;;;10.33;2.50;;;6.20;99.90;;;;;;4989620;28;20439;-74
2021/12/24 08:00:29;;;;;;;5.70;3.07;;;6.20;99.90;;;;;;4987681;28;20557;-74
2021/12/24 08:02:56;;;;;;;7.40;3.47;;;6.30;99.90;;;;;;4995358;28;20435;-74
2021/12/24 08:05:25;;;;;;;4.80;2.20;;;6.20;99.90;;;;;;4992220;28;20427;-74
2021/12/24 08:07:52;;;;;;;6.10;2.90;;;6.20;99.90;;;;;;4997771;28;20912;-74
2021/12/24 08:10:18;;;;;;;4.30;2.53;;;6.30;99.90;;;;;;4987259;28;20434;-73
2021/12/24 08:12:44;;;;;;;3.50;2.17;;;6.30;99.90;;;;;;4994011;28;20435;-74
2021/12/24 08:15:09;;;;;;;3.10;1.70;;;6.30;99.90;;;;;;4990352;28;20443;-74
2021/12/24 08:17:36;;;;;;;8.87;2.33;;;6.30;99.90;;;;;;4985082;28;20187;-74
2021/12/24 08:20:02;;;;;;;5.60;1.60;;;6.40;99.90;;;;;;4989187;28;20202;-74
2021/12/24 08:22:28;;;;;;;3.47;2.00;;;6.50;99.90;;;;;;4982460;28;20487;-73
2021/12/24 08:24:53;;;;;;;3.87;1.57;;;6.40;99.90;;;;;;4990116;28;20427;-73
2021/12/24 08:27:21;;;;;;;2.90;1.50;;;6.40;99.90;;;;;;4991361;28;20268;-74
2021/12/24 08:29:47;;;;;;;4.70;1.87;;;6.50;99.90;;;;;;4996384;28;20679;-74
2021/12/24 08:32:13;;;;;;;3.17;2.00;;;6.50;99.90;;;;;;4987060;28;20438;-74
2021/12/24 08:34:39;;;;;;;2.43;1.33;;;6.50;99.90;;;;;;4990760;28;20438;-74
2021/12/24 08:37:06;;;;;;;3.80;1.40;;;6.50;99.90;;;;;;5000141;28;20205;-73
2021/12/24 08:39:32;;;;;;;5.43;1.97;;;6.50;99.90;;;;;;4994251;28;21081;-73
2021/12/24 08:41:58;;;;;;;2.17;1.33;;;6.50;99.90;;;;;;4986130;28;20927;-74
2021/12/24 08:44:27;;;;;;;4.40;1.50;;;6.60;99.90;;;;;;4993389;28;20512;-74
2021/12/24 08:46:54;;;;;;;4.60;1.37;;;6.50;99.90;;;;;;4985088;28;20440;-73
2021/12/24 08:49:20;;;;;;;3.00;1.53;;;6.60;99.90;;;;;;4989504;28;20427;-73
2021/12/24 08:51:50;;;;;;;2.53;1.40;;;6.60;99.90;;;;;;4990282;28;20467;-74
2021/12/24 08:54:17;;;;;;;5.43;2.57;;;6.50;99.90;;;;;;4987787;28;20437;-74
2021/12/24 08:56:43;;;;;;;3.27;1.73;;;6.50;99.90;;;;;;4989311;28;20438;-74
2021/12/24 08:59:09;;;;;;;2.87;1.43;;;6.40;99.90;;;;;;4997021;28;20431;-75
2021/12/24 09:01:35;;;;;;;3.40;2.00;;;6.50;99.90;;;;;;4991749;28;20470;-74
2021/12/24 09:04:01;;;;;;;4.40;2.17;;;6.50;99.90;;;;;;4989648;28;20273;-74
2021/12/24 09:06:27;;;;;;;6.50;2.93;;;6.50;99.90;;;;;;4990585;28;20573;-74
2021/12/24 09:08:53;;;;;;;3.33;1.40;;;6.40;99.90;;;;;;4992678;28;20418;-74
2021/12/24 09:11:18;;;;;;;7.23;2.13;;;6.40;99.90;;;;;;4980012;28;20540;-74
2021/12/24 09:13:45;;;;;;;5.53;2.30;;;6.40;99.90;;;;;;4988532;28;20199;-74
2021/12/24 09:16:11;;;;;;;4.50;2.13;;;6.40;99.90;;;;;;4991327;28;20184;-74
2021/12/24 09:18:40;;;;;;;6.03;2.60;;;6.30;99.90;;;;;;4992315;28;20530;-75
2021/12/24 09:21:13;;;;;;;6.60;2.40;;;6.30;99.90;;;;;;4997266;28;20470;-74
2021/12/24 09:23:39;;;;;;;3.53;2.07;;;6.30;99.90;;;;;;4988337;28;20534;-74
2021/12/24 09:26:05;;;;;;;4.07;1.63;;;6.30;99.90;;;;;;4996377;28;20522;-74
2021/12/24 09:28:31;;;;;;;3.10;1.67;;;6.30;99.90;;;;;;4992493;28;20290;-73
2021/12/24 09:30:56;;;;;;;3.27;1.93;;;6.30;99.90;;;;;;4990362;28;20180;-74
2021/12/24 09:33:22;;;;;;;5.67;2.30;;;6.40;99.90;;;;;;4993172;28;20238;-74
2021/12/24 09:35:48;;;;;;;13.03;2.03;;;6.40;99.90;;;;;;4992369;28;20184;-74
2021/12/24 09:38:14;;;;;;;2.33;1.30;;;6.40;99.90;;;;;;4990068;28;20644;-74
2021/12/24 09:40:40;;;;;;;4.73;2.50;;;6.40;99.90;;;;;;4993805;28;20462;-74
2021/12/24 09:43:06;;;;;;;4.83;2.33;;;6.40;99.90;;;;;;4990748;28;20218;-74
2021/12/24 09:45:32;;;;;;;3.40;2.10;;;6.30;99.90;;;;;;4982172;28;20177;-74
2021/12/24 09:47:57;;;;;;;4.53;2.20;;;6.40;99.90;;;;;;4993480;28;20613;-74
2021/12/24 09:50:25;;;;;;;4.00;2.23;;;6.30;99.90;;;;;;4991334;28;20456;-74
2021/12/24 09:52:51;;;;;;;4.77;2.40;;;6.30;99.90;;;;;;5002772;28;20230;-74
2021/12/24 09:55:20;;;;;;;9.30;2.00;;;6.30;99.90;;;;;;4995832;28;20423;-74
2021/12/24 09:57:47;;;;;;;3.30;1.47;;;6.30;99.90;;;;;;4986763;28;20464;-75
2021/12/24 10:00:16;;;;;;;3.50;2.03;;;6.40;99.90;;;;;;4991918;28;20442;-74
2021/12/24 10:02:46;;;;;;;4.07;1.93;;;6.40;99.90;;;;;;4987658;28;20459;-76
2021/12/24 10:05:27;;;;;;;4.93;2.10;;;6.40;99.90;;;;;;4995317;28;21088;-76
2021/12/24 10:08:11;;;;;;;2.67;1.50;;;6.40;99.90;;;;;;4986716;28;20513;-75
2021/12/24 10:10:41;;;;;;;5.20;2.10;;;6.40;99.90;;;;;;4996166;28;20859;-75
2021/12/24 10:13:32;;;;;;;4.47;2.10;;;6.30;99.90;;;;;;4995713;28;20466;-76
2021/12/24 10:16:05;;;;;;;4.20;2.00;;;6.40;99.90;;;;;;4992240;28;20504;-75
2021/12/24 10:18:56;;;;;;;3.50;1.60;;;6.50;99.90;;;;;;4992850;28;20442;-74
2021/12/24 10:21:27;;;;;;;5.60;2.23;;;6.50;99.90;;;;;;4999668;28;20512;-74
2021/12/24 10:24:00;;;;;;;2.80;1.53;;;6.40;99.90;;;;;;4998266;28;20517;-75
2021/12/24 10:26:44;;;;;;;2.43;1.93;;;6.40;99.90;;;;;;4988439;28;20438;-74
2021/12/24 10:29:41;;;;;;;2.90;1.70;;;6.40;99.90;;;;;;4988850;28;20438;-73
2021/12/24 10:32:16;;;;;;;4.90;2.17;;;6.30;99.90;;;;;;4991691;28;20446;-73
2021/12/24 10:34:43;;;;;;;3.23;1.40;;;6.40;99.90;;;;;;4995915;28;20425;-73
2021/12/24 10:37:22;;;;;;;4.10;1.70;;;6.50;99.90;;;;;;4992216;28;20984;-73
2021/12/24 10:40:02;;;;;;;3.93;1.87;;;6.60;99.90;;;;;;4996891;28;20839;-73
2021/12/24 10:42:37;;;;;;;4.30;2.27;;;6.50;99.90;;;;;;4995959;28;20474;-73
2021/12/24 10:45:10;;;;;;;5.87;2.10;;;6.50;99.90;;;;;;4995625;28;20434;-73
2021/12/24 10:47:40;;;;;;;7.10;1.97;;;6.50;99.90;;;;;;4990457;28;20467;-73
2021/12/24 10:55:50;;;;;;;5.13;2.20;;;6.50;99.90;;;;;;4991516;28;20430;-73
2021/12/24 10:58:23;;;;;;;3.83;1.90;;;6.50;99.90;;;;;;4995126;28;20454;-73
2021/12/24 11:01:00;;;;;;;5.23;2.37;;;6.60;99.90;;;;;;4990392;28;20474;-73
2021/12/24 11:03:28;;;;;;;3.70;2.03;;;6.50;99.90;;;;;;4989244;28;20466;-73
2021/12/24 11:06:03;;;;;;;3.40;1.77;;;6.50;99.90;;;;;;4988703;28;20945;-73
2021/12/24 11:08:29;;;;;;;5.40;2.70;;;6.40;99.90;;;;;;4986734;28;20507;-73
2021/12/24 11:11:00;;;;;;;7.13;2.07;;;6.50;99.90;;;;;;4999940;28;20481;-73
2021/12/24 11:13:38;;;;;;;4.30;2.50;;;6.50;99.90;;;;;;4995954;28;20445;-73
2021/12/24 11:16:06;;;;;;;4.73;2.20;;;6.50;99.90;;;;;;4981846;28;20451;-73
2021/12/24 11:18:47;;;;;;;4.60;2.50;;;6.50;99.90;;;;;;4991118;28;20570;-72
2021/12/24 11:21:18;;;;;;;3.57;2.37;;;6.50;99.90;;;;;;4993881;28;20560;-71
2021/12/24 11:23:44;;;;;;;6.03;2.40;;;6.50;99.90;;;;;;4986876;28;20426;-73
2021/12/24 11:26:15;;;;;;;5.37;2.77;;;6.50;99.90;;;;;;4996812;28;20433;-73
2021/12/24 11:28:42;;;;;;;4.00;1.90;;;6.50;99.90;;;;;;4998084;28;20184;-73
2021/12/24 11:31:09;;;;;;;4.73;2.87;;;6.50;99.90;;;;;;4997422;28;20449;-73
2021/12/24 11:33:37;;;;;;;3.80;2.40;;;6.50;99.90;;;;;;4972644;28;20428;-72
2021/12/24 11:36:08;;;;;;;5.07;2.80;;;6.50;99.90;;;;;;4984097;28;20424;-72
2021/12/24 11:38:39;;;;;;;4.67;2.40;;;6.50;99.90;;;;;;4984954;28;20418;-72
2021/12/24 11:41:07;;;;;;;4.77;2.53;;;6.60;99.90;;;;;;4991555;28;20502;-73
2021/12/24 11:43:35;;;;;;;5.00;2.90;;;6.60;99.90;;;;;;4988914;28;20451;-73
2021/12/24 11:46:04;;;;;;;4.90;2.27;;;6.70;99.90;;;;;;4979462;28;20506;-72
2021/12/24 11:48:32;;;;;;;6.10;2.40;;;6.70;99.90;;;;;;4977652;28;20435;-73
2021/12/24 11:51:00;;;;;;;5.63;2.90;;;6.70;99.90;;;;;;4989860;28;20432;-73
2021/12/24 11:53:27;;;;;;;7.23;3.17;;;6.80;99.90;;;;;;4995335;28;20431;-73
2021/12/24 11:55:53;;;;;;;5.03;2.43;;;6.70;99.90;;;;;;4989271;28;20435;-72
2021/12/24 11:58:22;;;;;;;4.07;1.67;;;6.90;99.90;;;;;;4986481;28;20445;-72
2021/12/24 12:00:52;;;;;;;4.67;2.10;;;6.80;99.90;;;;;;4987959;28;20242;-72
2021/12/24 12:03:49;;;;;;;3.80;1.60;;;6.90;99.90;;;;;;4995351;28;20438;-72
2021/12/24 12:06:17;;;;;;;2.63;1.60;;;6.90;99.90;;;;;;4977129;28;20876;-72
2021/12/24 12:08:50;;;;;;;8.93;3.00;;;7.00;99.90;;;;;;4989633;28;20485;-72
2021/12/24 12:11:19;;;;;;;5.17;1.83;;;7.00;99.90;;;;;;4992500;28;20438;-72
2021/12/24 12:13:44;;;;;;;5.67;3.00;;;7.00;99.90;;;;;;4994912;28;20841;-73
2021/12/24 12:16:42;;;;;;;4.67;2.20;;;7.10;99.90;;;;;;4993816;28;20427;-73
2021/12/24 12:25:10;;;;;;;4.33;1.90;;;7.10;99.90;;;;;;4990817;28;20507;-73
2021/12/24 12:27:52;;;;;;;5.53;1.93;;;7.20;99.90;;;;;;4983587;28;20963;-73
2021/12/24 12:30:36;;;;;;;4.00;1.60;;;7.20;99.90;;;;;;4993583;28;20446;-73
2021/12/24 12:33:08;;;;;;;4.27;1.40;;;7.10;99.90;;;;;;4995531;28;20453;-72
2021/12/24 12:35:42;;;;;;;4.00;1.30;;;7.20;99.90;;;;;;4996596;28;20441;-72
2021/12/24 12:38:26;;;;;;;3.00;0.97;;;7.10;99.90;;;;;;4975926;28;20426;-72
2021/12/24 12:40:53;;;;;;;3.80;1.50;;;7.20;99.90;;;;;;4983771;28;20470;-72
2021/12/24 12:43:21;;;;;;;7.73;1.80;;;7.20;99.90;;;;;;4982768;28;20430;-72
2021/12/24 12:45:48;;;;;;;2.10;1.00;;;7.20;99.90;;;;;;4971086;28;20444;-73
2021/12/24 12:48:25;;;;;;;2.37;1.30;;;7.20;99.90;;;;;;4984386;28;20435;-73
2021/12/24 12:50:57;;;;;;;2.23;1.00;;;7.30;99.90;;;;;;4974537;28;20431;-72
2021/12/24 12:53:30;;;;;;;2.17;0.90;;;7.30;99.90;;;;;;4994307;28;20538;-72
2021/12/24 12:56:15;;;;;;;2.53;0.90;;;7.30;99.90;;;;;;4993188;28;20431;-75
2021/12/24 12:58:47;;;;;;;1.90;1.27;;;7.30;99.90;;;;;;4991675;28;20443;-73
2021/12/24 13:01:18;;;;;;;2.00;1.13;;;7.30;99.90;;;;;;4997847;28;20484;-73
2021/12/24 13:03:55;;;;;;;1.90;0.83;;;7.30;99.90;;;;;;4985475;28;20441;-73
2021/12/24 13:06:42;;;;;;;2.93;1.33;;;7.40;99.90;;;;;;4996113;28;20417;-73
2021/12/24 13:09:14;;;;;;;3.70;1.37;;;7.40;99.90;;;;;;4989083;28;20430;-73
2021/12/24 13:11:46;;;;;;;1.93;1.00;;;7.40;99.90;;;;;;5004345;28;20426;-73
2021/12/24 13:14:14;;;;;;;4.33;1.40;;;7.50;99.90;;;;;;4976454;28;20427;-73
2021/12/24 13:16:50;;;;;;;2.20;0.90;;;7.50;99.90;;;;;;4982002;28;20484;-73
2021/12/24 13:22:31;;;;;;;2.47;1.20;;;7.60;99.90;;;;;;4976344;28;20924;-73
2021/12/24 13:25:14;;;;;;;4.83;1.10;;;7.60;99.90;;;;;;4988269;28;20890;-73
2021/12/24 13:27:45;;;;;;;1.53;0.70;;;7.60;99.90;;;;;;4987028;28;20419;-73
2021/12/24 13:30:22;;;;;;;3.60;1.33;;;7.60;99.90;;;;;;4992519;28;20415;-73
2021/12/24 13:33:06;;;;;;;2.03;0.93;;;7.60;99.90;;;;;;4985426;28;20518;-73
2021/12/24 13:35:38;;;;;;;2.80;1.47;;;7.50;99.90;;;;;;4992171;28;20510;-73
2021/12/24 13:38:10;;;;;;;3.40;1.37;;;7.50;99.90;;;;;;4987407;28;20439;-73
2021/12/24 13:40:36;;;;;;;3.30;1.37;;;7.50;99.90;;;;;;4987672;28;20479;-72
2021/12/24 13:43:06;;;;;;;2.40;1.27;;;7.50;99.90;;;;;;4995181;28;20466;-72
2021/12/24 13:45:35;;;;;;;3.20;1.57;;;7.50;99.90;;;;;;4990517;28;20653;-72
2021/12/24 13:48:11;;;;;;;1.70;1.00;;;7.70;99.90;;;;;;4997314;28;20731;-73
2021/12/24 13:56:25;;;;;;;2.00;1.10;;;7.60;99.90;;;;;;4988901;28;20501;-73
2021/12/24 13:58:52;;;;;;;2.20;1.23;;;7.60;99.90;;;;;;4995366;28;20433;-71
2021/12/24 14:01:26;;;;;;;3.50;0.83;;;7.60;99.90;;;;;;5002427;28;20468;-73
2021/12/24 14:03:52;;;;;;;1.50;0.73;;;7.50;99.90;;;;;;5009857;28;20440;-73
2021/12/24 14:06:18;;;;;;;2.97;1.10;;;7.60;99.90;;;;;;4990459;28;21062;-73
2021/12/24 14:08:44;;;;;;;2.43;1.17;;;7.50;99.90;;;;;;4990644;28;20951;-72
2021/12/24 14:11:23;;;;;;;1.60;0.80;;;7.60;99.90;;;;;;4992123;28;20431;-73
2021/12/24 14:13:57;;;;;;;1.80;1.00;;;7.60;99.90;;;;;;4997155;28;20267;-72
2021/12/24 14:19:27;;;;;;;2.73;1.40;;;7.60;99.90;;;;;;4993454;28;20562;-73
2021/12/24 14:21:53;;;;;;;6.10;1.37;;;7.50;99.90;;;;;;4983346;28;20590;-73
2021/12/24 14:24:26;;;;;;;2.93;1.73;;;7.60;99.90;;;;;;4996007;28;20450;-73
2021/12/24 14:26:54;;;;;;;1.90;0.93;;;7.50;99.90;;;;;;4990482;28;20285;-72
2021/12/24 14:29:28;;;;;;;6.17;1.40;;;7.60;99.90;;;;;;4986873;28;20521;-73
2021/12/24 14:32:12;;;;;;;2.57;1.10;;;7.50;99.90;;;;;;4986252;28;20437;-73
2021/12/24 14:34:48;;;;;;;2.40;1.10;;;7.50;99.90;;;;;;4984813;28;21165;-72
2021/12/24 14:37:33;;;;;;;7.07;1.93;;;7.50;99.90;;;;;;4990004;28;20526;-73
2021/12/24 14:40:03;;;;;;;1.50;0.70;;;7.50;99.90;;;;;;4990000;28;20447;-73
2021/12/24 14:42:47;;;;;;;2.00;1.00;;;7.50;99.90;;;;;;4980926;28;20475;-72
2021/12/24 14:45:39;;;;;;;2.07;1.07;;;7.50;99.90;;;;;;4984253;28;20423;-73
2021/12/24 14:48:21;;;;;;;2.57;1.30;;;7.50;99.90;;;;;;4989367;28;20435;-73
2021/12/24 14:50:54;;;;;;;3.60;1.43;;;7.40;99.90;;;;;;4992928;28;20466;-74
2021/12/24 14:53:24;;;;;;;4.37;1.00;;;7.40;99.90;;;;;;4992890;28;20419;-74
2021/12/24 14:55:54;;;;;;;1.70;0.80;;;7.40;99.90;;;;;;4992124;28;20509;-75
2021/12/24 14:58:28;;;;;;;1.87;1.13;;;7.40;99.90;;;;;;4985267;28;20983;-71
2021/12/24 15:00:54;;;;;;;1.83;0.80;;;7.30;99.90;;;;;;4990720;28;20498;-72
2021/12/24 15:03:21;;;;;;;3.63;1.70;;;7.30;99.90;;;;;;4984821;28;20431;-71
2021/12/24 15:05:48;;;;;;;1.97;1.07;;;7.30;99.90;;;;;;4990368;28;20765;-73
2021/12/24 15:08:32;;;;;;;3.47;1.67;;;7.40;99.90;;;;;;4984398;28;20428;-73
2021/12/24 15:11:03;;;;;;;13.50;3.43;;;7.30;99.90;;;;;;4990809;28;20438;-73
2021/12/24 15:13:29;;;;;;;11.30;3.03;;;7.30;99.90;;;;;;4983753;28;20439;-73